sensor_id;sensor_type;location;lat;lon;timestamp;P1;durP1;ratioP1;P2;durP2;ratioP2
52104;SDS011;38103;42.776;23.112;2022-07-17T00:00:43;11.05;;;4.25;;
52104;SDS011;38103;42.776;23.112;2022-07-17T00:03:12;15.95;;;6.18;;
52104;SDS011;38103;42.776;23.112;2022-07-17T00:05:38;12.95;;;4.55;;
52104;SDS011;38103;42.776;23.112;2022-07-17T00:08:05;15.75;;;4.32;;
52104;SDS011;38103;42.776;23.112;2022-07-17T00:10:31;11.65;;;4.45;;
52104;SDS011;38103;42.776;23.112;2022-07-17T00:12:57;13.00;;;4.78;;
52104;SDS011;38103;42.776;23.112;2022-07-17T00:15:23;15.43;;;4.43;;
52104;SDS011;38103;42.776;23.112;2022-07-17T00:17:48;13.27;;;4.45;;
52104;SDS011;38103;42.776;23.112;2022-07-17T00:20:14;11.93;;;4.15;;
52104;SDS011;38103;42.776;23.112;2022-07-17T00:22:39;11.63;;;4.03;;
52104;SDS011;38103;42.776;23.112;2022-07-17T00:25:07;13.23;;;4.03;;
52104;SDS011;38103;42.776;23.112;2022-07-17T00:27:33;12.57;;;3.42;;
52104;SDS011;38103;42.776;23.112;2022-07-17T00:29:58;13.25;;;3.90;;
52104;SDS011;38103;42.776;23.112;2022-07-17T00:32:24;12.85;;;5.03;;
52104;SDS011;38103;42.776;23.112;2022-07-17T00:34:50;11.00;;;4.50;;
52104;SDS011;38103;42.776;23.112;2022-07-17T00:37:16;12.73;;;4.45;;
52104;SDS011;38103;42.776;23.112;2022-07-17T00:39:42;10.88;;;4.15;;
52104;SDS011;38103;42.776;23.112;2022-07-17T00:42:14;21.85;;;4.60;;
52104;SDS011;38103;42.776;23.112;2022-07-17T00:44:41;17.55;;;5.30;;
52104;SDS011;38103;42.776;23.112;2022-07-17T00:47:18;16.77;;;4.88;;
52104;SDS011;38103;42.776;23.112;2022-07-17T00:49:45;17.25;;;4.40;;
52104;SDS011;38103;42.776;23.112;2022-07-17T00:52:11;12.82;;;4.03;;
52104;SDS011;38103;42.776;23.112;2022-07-17T00:54:37;15.95;;;4.30;;
52104;SDS011;38103;42.776;23.112;2022-07-17T00:57:11;15.75;;;4.75;;
52104;SDS011;38103;42.776;23.112;2022-07-17T00:59:38;10.50;;;4.03;;
52104;SDS011;38103;42.776;23.112;2022-07-17T01:02:05;10.48;;;4.22;;
52104;SDS011;38103;42.776;23.112;2022-07-17T01:04:32;9.70;;;3.88;;
52104;SDS011;38103;42.776;23.112;2022-07-17T01:06:59;9.23;;;3.55;;
52104;SDS011;38103;42.776;23.112;2022-07-17T01:09:28;13.20;;;3.85;;
52104;SDS011;38103;42.776;23.112;2022-07-17T01:11:55;10.45;;;3.75;;
52104;SDS011;38103;42.776;23.112;2022-07-17T01:14:22;12.27;;;4.07;;
52104;SDS011;38103;42.776;23.112;2022-07-17T01:16:49;10.23;;;3.83;;
52104;SDS011;38103;42.776;23.112;2022-07-17T01:19:15;8.50;;;3.63;;
52104;SDS011;38103;42.776;23.112;2022-07-17T01:21:42;8.93;;;3.75;;
52104;SDS011;38103;42.776;23.112;2022-07-17T01:24:09;9.38;;;3.80;;
52104;SDS011;38103;42.776;23.112;2022-07-17T01:26:35;8.80;;;3.78;;
52104;SDS011;38103;42.776;23.112;2022-07-17T01:29:00;9.73;;;3.80;;
52104;SDS011;38103;42.776;23.112;2022-07-17T01:31:25;9.10;;;3.63;;
52104;SDS011;38103;42.776;23.112;2022-07-17T01:33:51;9.35;;;3.78;;
52104;SDS011;38103;42.776;23.112;2022-07-17T01:36:21;9.48;;;3.75;;
52104;SDS011;38103;42.776;23.112;2022-07-17T01:38:49;11.10;;;3.70;;
52104;SDS011;38103;42.776;23.112;2022-07-17T01:41:15;11.57;;;3.63;;
52104;SDS011;38103;42.776;23.112;2022-07-17T01:43:41;10.30;;;3.65;;
52104;SDS011;38103;42.776;23.112;2022-07-17T01:46:06;11.25;;;4.80;;
52104;SDS011;38103;42.776;23.112;2022-07-17T01:48:32;12.90;;;5.15;;
52104;SDS011;38103;42.776;23.112;2022-07-17T01:50:57;15.20;;;5.10;;
52104;SDS011;38103;42.776;23.112;2022-07-17T01:53:23;12.32;;;4.10;;
52104;SDS011;38103;42.776;23.112;2022-07-17T01:55:49;10.52;;;3.42;;
52104;SDS011;38103;42.776;23.112;2022-07-17T01:58:14;9.68;;;3.50;;
52104;SDS011;38103;42.776;23.112;2022-07-17T02:00:40;10.30;;;4.20;;
52104;SDS011;38103;42.776;23.112;2022-07-17T02:03:05;9.02;;;3.63;;
52104;SDS011;38103;42.776;23.112;2022-07-17T02:05:30;9.25;;;3.47;;
52104;SDS011;38103;42.776;23.112;2022-07-17T02:07:56;10.50;;;3.47;;
52104;SDS011;38103;42.776;23.112;2022-07-17T02:10:21;9.13;;;3.63;;
52104;SDS011;38103;42.776;23.112;2022-07-17T02:12:47;22.75;;;3.78;;
52104;SDS011;38103;42.776;23.112;2022-07-17T02:15:12;8.93;;;3.60;;
52104;SDS011;38103;42.776;23.112;2022-07-17T02:17:39;11.52;;;3.72;;
52104;SDS011;38103;42.776;23.112;2022-07-17T02:20:06;10.60;;;3.38;;
52104;SDS011;38103;42.776;23.112;2022-07-17T02:22:32;8.38;;;3.45;;
52104;SDS011;38103;42.776;23.112;2022-07-17T02:24:58;8.93;;;3.58;;
52104;SDS011;38103;42.776;23.112;2022-07-17T02:27:23;10.30;;;3.50;;
52104;SDS011;38103;42.776;23.112;2022-07-17T02:29:48;10.60;;;3.65;;
52104;SDS011;38103;42.776;23.112;2022-07-17T02:32:14;10.18;;;3.70;;
52104;SDS011;38103;42.776;23.112;2022-07-17T02:34:39;10.13;;;3.88;;
52104;SDS011;38103;42.776;23.112;2022-07-17T02:37:05;11.02;;;3.38;;
52104;SDS011;38103;42.776;23.112;2022-07-17T02:39:31;13.40;;;3.40;;
52104;SDS011;38103;42.776;23.112;2022-07-17T02:41:56;9.40;;;3.90;;
52104;SDS011;38103;42.776;23.112;2022-07-17T02:44:22;9.88;;;3.70;;
52104;SDS011;38103;42.776;23.112;2022-07-17T02:46:47;9.45;;;3.55;;
52104;SDS011;38103;42.776;23.112;2022-07-17T02:49:12;14.73;;;3.50;;
52104;SDS011;38103;42.776;23.112;2022-07-17T02:51:38;9.10;;;3.83;;
52104;SDS011;38103;42.776;23.112;2022-07-17T02:54:03;9.35;;;3.50;;
52104;SDS011;38103;42.776;23.112;2022-07-17T02:56:29;9.00;;;3.65;;
52104;SDS011;38103;42.776;23.112;2022-07-17T02:58:54;9.30;;;3.60;;
52104;SDS011;38103;42.776;23.112;2022-07-17T03:01:19;11.95;;;3.70;;
52104;SDS011;38103;42.776;23.112;2022-07-17T03:03:45;12.10;;;4.00;;
52104;SDS011;38103;42.776;23.112;2022-07-17T03:06:11;11.13;;;3.60;;
52104;SDS011;38103;42.776;23.112;2022-07-17T03:08:36;9.73;;;3.55;;
52104;SDS011;38103;42.776;23.112;2022-07-17T03:11:02;11.20;;;3.90;;
52104;SDS011;38103;42.776;23.112;2022-07-17T03:13:27;9.60;;;3.60;;
52104;SDS011;38103;42.776;23.112;2022-07-17T03:15:53;8.82;;;3.45;;
52104;SDS011;38103;42.776;23.112;2022-07-17T03:18:19;8.90;;;3.70;;
52104;SDS011;38103;42.776;23.112;2022-07-17T03:20:44;9.93;;;3.70;;
52104;SDS011;38103;42.776;23.112;2022-07-17T03:23:10;11.35;;;3.92;;
52104;SDS011;38103;42.776;23.112;2022-07-17T03:25:36;9.93;;;3.65;;
52104;SDS011;38103;42.776;23.112;2022-07-17T03:28:01;9.63;;;3.67;;
52104;SDS011;38103;42.776;23.112;2022-07-17T03:30:27;13.02;;;3.75;;
52104;SDS011;38103;42.776;23.112;2022-07-17T03:32:52;8.93;;;3.47;;
52104;SDS011;38103;42.776;23.112;2022-07-17T03:35:18;11.77;;;3.90;;
52104;SDS011;38103;42.776;23.112;2022-07-17T03:37:43;9.73;;;3.90;;
52104;SDS011;38103;42.776;23.112;2022-07-17T03:40:09;10.02;;;3.67;;
52104;SDS011;38103;42.776;23.112;2022-07-17T03:42:35;9.70;;;3.72;;
52104;SDS011;38103;42.776;23.112;2022-07-17T03:45:01;9.93;;;4.00;;
52104;SDS011;38103;42.776;23.112;2022-07-17T03:47:26;10.45;;;3.85;;
52104;SDS011;38103;42.776;23.112;2022-07-17T03:49:51;8.95;;;3.50;;
52104;SDS011;38103;42.776;23.112;2022-07-17T03:52:17;12.13;;;3.53;;
52104;SDS011;38103;42.776;23.112;2022-07-17T03:54:42;9.90;;;3.80;;
52104;SDS011;38103;42.776;23.112;2022-07-17T03:57:08;9.55;;;3.72;;
52104;SDS011;38103;42.776;23.112;2022-07-17T03:59:33;10.88;;;3.60;;
52104;SDS011;38103;42.776;23.112;2022-07-17T04:01:58;9.38;;;3.85;;
52104;SDS011;38103;42.776;23.112;2022-07-17T04:04:24;12.75;;;4.20;;
52104;SDS011;38103;42.776;23.112;2022-07-17T04:06:49;10.85;;;3.40;;
52104;SDS011;38103;42.776;23.112;2022-07-17T04:09:14;8.70;;;3.50;;
52104;SDS011;38103;42.776;23.112;2022-07-17T04:11:40;8.85;;;3.50;;
52104;SDS011;38103;42.776;23.112;2022-07-17T04:14:05;9.10;;;3.38;;
52104;SDS011;38103;42.776;23.112;2022-07-17T04:16:31;8.85;;;3.67;;
52104;SDS011;38103;42.776;23.112;2022-07-17T04:18:56;8.82;;;3.38;;
52104;SDS011;38103;42.776;23.112;2022-07-17T04:21:21;10.75;;;3.28;;
52104;SDS011;38103;42.776;23.112;2022-07-17T04:23:47;15.60;;;3.88;;
52104;SDS011;38103;42.776;23.112;2022-07-17T04:26:12;9.10;;;3.38;;
52104;SDS011;38103;42.776;23.112;2022-07-17T04:28:38;8.60;;;3.15;;
52104;SDS011;38103;42.776;23.112;2022-07-17T04:31:04;8.00;;;3.08;;
52104;SDS011;38103;42.776;23.112;2022-07-17T04:33:29;8.32;;;3.33;;
52104;SDS011;38103;42.776;23.112;2022-07-17T04:35:55;11.10;;;3.20;;
52104;SDS011;38103;42.776;23.112;2022-07-17T04:38:20;10.10;;;3.60;;
52104;SDS011;38103;42.776;23.112;2022-07-17T04:40:46;15.23;;;5.03;;
52104;SDS011;38103;42.776;23.112;2022-07-17T04:43:11;13.20;;;4.50;;
52104;SDS011;38103;42.776;23.112;2022-07-17T04:45:37;13.20;;;4.15;;
52104;SDS011;38103;42.776;23.112;2022-07-17T04:48:03;10.48;;;3.28;;
52104;SDS011;38103;42.776;23.112;2022-07-17T04:50:29;12.93;;;3.85;;
52104;SDS011;38103;42.776;23.112;2022-07-17T04:52:54;9.00;;;2.97;;
52104;SDS011;38103;42.776;23.112;2022-07-17T04:55:19;17.80;;;5.13;;
52104;SDS011;38103;42.776;23.112;2022-07-17T04:57:45;9.07;;;3.35;;
52104;SDS011;38103;42.776;23.112;2022-07-17T05:10:52;15.60;;;3.72;;
52104;SDS011;38103;42.776;23.112;2022-07-17T05:13:17;8.93;;;3.22;;
52104;SDS011;38103;42.776;23.112;2022-07-17T05:15:43;9.82;;;3.65;;
52104;SDS011;38103;42.776;23.112;2022-07-17T05:18:08;8.23;;;3.00;;
52104;SDS011;38103;42.776;23.112;2022-07-17T05:20:33;10.63;;;3.47;;
52104;SDS011;38103;42.776;23.112;2022-07-17T05:22:59;10.50;;;3.35;;
52104;SDS011;38103;42.776;23.112;2022-07-17T05:25:25;11.73;;;4.18;;
52104;SDS011;38103;42.776;23.112;2022-07-17T05:27:50;8.50;;;3.00;;
52104;SDS011;38103;42.776;23.112;2022-07-17T05:30:16;11.23;;;3.50;;
52104;SDS011;38103;42.776;23.112;2022-07-17T05:32:41;10.88;;;3.55;;
52104;SDS011;38103;42.776;23.112;2022-07-17T05:35:06;8.32;;;3.00;;
52104;SDS011;38103;42.776;23.112;2022-07-17T05:37:32;14.43;;;4.18;;
52104;SDS011;38103;42.776;23.112;2022-07-17T05:39:58;12.10;;;3.45;;
52104;SDS011;38103;42.776;23.112;2022-07-17T05:42:24;10.45;;;3.30;;
52104;SDS011;38103;42.776;23.112;2022-07-17T05:44:49;16.75;;;4.15;;
52104;SDS011;38103;42.776;23.112;2022-07-17T05:47:14;8.90;;;3.20;;
52104;SDS011;38103;42.776;23.112;2022-07-17T05:49:40;8.50;;;3.03;;
52104;SDS011;38103;42.776;23.112;2022-07-17T05:52:05;9.25;;;3.20;;
52104;SDS011;38103;42.776;23.112;2022-07-17T05:54:30;9.70;;;4.10;;
52104;SDS011;38103;42.776;23.112;2022-07-17T05:56:57;10.10;;;3.42;;
52104;SDS011;38103;42.776;23.112;2022-07-17T05:59:23;9.98;;;3.30;;
52104;SDS011;38103;42.776;23.112;2022-07-17T06:01:49;9.40;;;3.38;;
52104;SDS011;38103;42.776;23.112;2022-07-17T06:04:14;9.02;;;3.25;;
52104;SDS011;38103;42.776;23.112;2022-07-17T06:06:40;12.68;;;3.45;;
52104;SDS011;38103;42.776;23.112;2022-07-17T06:09:05;8.27;;;3.28;;
52104;SDS011;38103;42.776;23.112;2022-07-17T06:11:31;7.53;;;2.78;;
52104;SDS011;38103;42.776;23.112;2022-07-17T06:13:57;7.53;;;2.92;;
52104;SDS011;38103;42.776;23.112;2022-07-17T06:16:22;9.70;;;3.10;;
52104;SDS011;38103;42.776;23.112;2022-07-17T06:18:47;9.77;;;3.22;;
52104;SDS011;38103;42.776;23.112;2022-07-17T06:21:13;9.07;;;2.85;;
52104;SDS011;38103;42.776;23.112;2022-07-17T06:23:38;10.55;;;3.20;;
52104;SDS011;38103;42.776;23.112;2022-07-17T06:26:04;7.57;;;2.90;;
52104;SDS011;38103;42.776;23.112;2022-07-17T06:28:29;10.10;;;3.08;;
52104;SDS011;38103;42.776;23.112;2022-07-17T06:30:55;8.70;;;3.00;;
52104;SDS011;38103;42.776;23.112;2022-07-17T06:33:20;10.45;;;3.10;;
52104;SDS011;38103;42.776;23.112;2022-07-17T06:35:45;11.02;;;3.28;;
52104;SDS011;38103;42.776;23.112;2022-07-17T06:38:11;8.85;;;3.00;;
52104;SDS011;38103;42.776;23.112;2022-07-17T06:40:36;9.73;;;2.95;;
52104;SDS011;38103;42.776;23.112;2022-07-17T06:43:02;22.60;;;3.13;;
52104;SDS011;38103;42.776;23.112;2022-07-17T06:45:29;8.25;;;2.90;;
52104;SDS011;38103;42.776;23.112;2022-07-17T06:47:55;8.85;;;2.95;;
52104;SDS011;38103;42.776;23.112;2022-07-17T06:50:20;9.90;;;2.90;;
52104;SDS011;38103;42.776;23.112;2022-07-17T06:52:45;11.45;;;3.15;;
52104;SDS011;38103;42.776;23.112;2022-07-17T06:55:11;10.88;;;3.20;;
52104;SDS011;38103;42.776;23.112;2022-07-17T06:57:36;10.60;;;3.20;;
52104;SDS011;38103;42.776;23.112;2022-07-17T07:00:02;8.90;;;3.08;;
52104;SDS011;38103;42.776;23.112;2022-07-17T07:02:28;11.07;;;3.17;;
52104;SDS011;38103;42.776;23.112;2022-07-17T07:04:54;9.70;;;3.28;;
52104;SDS011;38103;42.776;23.112;2022-07-17T07:07:19;8.70;;;3.20;;
52104;SDS011;38103;42.776;23.112;2022-07-17T07:09:44;7.38;;;2.78;;
52104;SDS011;38103;42.776;23.112;2022-07-17T07:12:10;10.48;;;3.35;;
52104;SDS011;38103;42.776;23.112;2022-07-17T07:14:35;10.80;;;3.65;;
52104;SDS011;38103;42.776;23.112;2022-07-17T07:17:01;8.20;;;3.03;;
52104;SDS011;38103;42.776;23.112;2022-07-17T07:19:26;11.32;;;3.70;;
52104;SDS011;38103;42.776;23.112;2022-07-17T07:21:51;11.88;;;3.15;;
52104;SDS011;38103;42.776;23.112;2022-07-17T07:24:17;9.40;;;3.58;;
52104;SDS011;38103;42.776;23.112;2022-07-17T07:26:42;12.65;;;3.50;;
52104;SDS011;38103;42.776;23.112;2022-07-17T07:29:07;10.13;;;3.30;;
52104;SDS011;38103;42.776;23.112;2022-07-17T07:31:33;8.82;;;3.15;;
52104;SDS011;38103;42.776;23.112;2022-07-17T07:33:58;11.10;;;3.10;;
52104;SDS011;38103;42.776;23.112;2022-07-17T07:36:23;10.27;;;3.08;;
52104;SDS011;38103;42.776;23.112;2022-07-17T07:38:49;11.73;;;3.50;;
52104;SDS011;38103;42.776;23.112;2022-07-17T07:41:14;12.85;;;3.67;;
52104;SDS011;38103;42.776;23.112;2022-07-17T07:43:40;9.80;;;3.30;;
52104;SDS011;38103;42.776;23.112;2022-07-17T07:46:05;9.70;;;3.40;;
52104;SDS011;38103;42.776;23.112;2022-07-17T07:48:31;10.88;;;3.50;;
52104;SDS011;38103;42.776;23.112;2022-07-17T07:50:57;8.02;;;2.80;;
52104;SDS011;38103;42.776;23.112;2022-07-17T07:53:22;11.13;;;3.60;;
52104;SDS011;38103;42.776;23.112;2022-07-17T07:55:48;10.15;;;3.22;;
52104;SDS011;38103;42.776;23.112;2022-07-17T07:58:13;8.68;;;3.25;;
52104;SDS011;38103;42.776;23.112;2022-07-17T08:00:39;8.80;;;3.38;;
52104;SDS011;38103;42.776;23.112;2022-07-17T08:03:08;10.57;;;3.20;;
52104;SDS011;38103;42.776;23.112;2022-07-17T08:05:33;12.95;;;4.70;;
52104;SDS011;38103;42.776;23.112;2022-07-17T08:07:59;14.18;;;4.57;;
52104;SDS011;38103;42.776;23.112;2022-07-17T08:10:25;9.05;;;3.20;;
52104;SDS011;38103;42.776;23.112;2022-07-17T08:12:50;11.18;;;3.40;;
52104;SDS011;38103;42.776;23.112;2022-07-17T08:15:17;9.18;;;3.38;;
52104;SDS011;38103;42.776;23.112;2022-07-17T08:17:44;9.60;;;3.53;;
52104;SDS011;38103;42.776;23.112;2022-07-17T08:20:11;13.68;;;3.53;;
52104;SDS011;38103;42.776;23.112;2022-07-17T08:22:37;10.57;;;3.13;;
52104;SDS011;38103;42.776;23.112;2022-07-17T08:25:03;8.63;;;3.17;;
52104;SDS011;38103;42.776;23.112;2022-07-17T08:27:34;9.23;;;3.20;;
52104;SDS011;38103;42.776;23.112;2022-07-17T08:30:02;9.02;;;3.83;;
52104;SDS011;38103;42.776;23.112;2022-07-17T08:32:29;10.25;;;3.35;;
52104;SDS011;38103;42.776;23.112;2022-07-17T08:34:54;11.32;;;3.53;;
52104;SDS011;38103;42.776;23.112;2022-07-17T08:37:19;9.65;;;3.40;;
52104;SDS011;38103;42.776;23.112;2022-07-17T08:39:45;9.80;;;3.30;;
52104;SDS011;38103;42.776;23.112;2022-07-17T08:42:10;9.02;;;3.17;;
52104;SDS011;38103;42.776;23.112;2022-07-17T08:44:41;11.60;;;3.50;;
52104;SDS011;38103;42.776;23.112;2022-07-17T08:47:06;11.10;;;3.42;;
52104;SDS011;38103;42.776;23.112;2022-07-17T08:49:33;10.55;;;3.30;;
52104;SDS011;38103;42.776;23.112;2022-07-17T08:52:03;9.63;;;3.15;;
52104;SDS011;38103;42.776;23.112;2022-07-17T08:54:29;11.93;;;3.45;;
52104;SDS011;38103;42.776;23.112;2022-07-17T08:56:54;11.38;;;3.28;;
52104;SDS011;38103;42.776;23.112;2022-07-17T08:59:19;9.55;;;3.30;;
52104;SDS011;38103;42.776;23.112;2022-07-17T09:01:45;12.63;;;2.90;;
52104;SDS011;38103;42.776;23.112;2022-07-17T09:04:10;8.88;;;3.30;;
52104;SDS011;38103;42.776;23.112;2022-07-17T09:06:36;10.00;;;3.40;;
52104;SDS011;38103;42.776;23.112;2022-07-17T09:12:08;10.52;;;3.25;;
52104;SDS011;38103;42.776;23.112;2022-07-17T09:14:38;9.70;;;3.90;;
52104;SDS011;38103;42.776;23.112;2022-07-17T09:17:04;9.25;;;3.38;;
52104;SDS011;38103;42.776;23.112;2022-07-17T09:19:41;7.90;;;2.92;;
52104;SDS011;38103;42.776;23.112;2022-07-17T09:22:22;8.65;;;3.40;;
52104;SDS011;38103;42.776;23.112;2022-07-17T09:27:27;10.02;;;3.40;;
52104;SDS011;38103;42.776;23.112;2022-07-17T09:32:28;8.55;;;2.90;;
52104;SDS011;38103;42.776;23.112;2022-07-17T09:35:02;9.20;;;3.33;;
52104;SDS011;38103;42.776;23.112;2022-07-17T09:37:30;10.25;;;3.30;;
52104;SDS011;38103;42.776;23.112;2022-07-17T09:39:57;8.13;;;3.00;;
52104;SDS011;38103;42.776;23.112;2022-07-17T09:42:30;8.52;;;3.40;;
52104;SDS011;38103;42.776;23.112;2022-07-17T09:45:01;8.27;;;3.10;;
52104;SDS011;38103;42.776;23.112;2022-07-17T09:47:29;10.02;;;3.58;;
52104;SDS011;38103;42.776;23.112;2022-07-17T09:49:56;9.70;;;3.17;;
52104;SDS011;38103;42.776;23.112;2022-07-17T09:52:23;8.32;;;3.33;;
52104;SDS011;38103;42.776;23.112;2022-07-17T09:54:51;8.68;;;3.35;;
52104;SDS011;38103;42.776;23.112;2022-07-17T09:57:19;8.57;;;3.17;;
52104;SDS011;38103;42.776;23.112;2022-07-17T09:59:49;9.02;;;3.20;;
52104;SDS011;38103;42.776;23.112;2022-07-17T10:02:15;10.00;;;3.22;;
52104;SDS011;38103;42.776;23.112;2022-07-17T10:04:41;9.65;;;3.20;;
52104;SDS011;38103;42.776;23.112;2022-07-17T10:07:07;8.85;;;3.05;;
52104;SDS011;38103;42.776;23.112;2022-07-17T10:09:34;9.85;;;3.35;;
52104;SDS011;38103;42.776;23.112;2022-07-17T10:12:00;12.05;;;3.40;;
52104;SDS011;38103;42.776;23.112;2022-07-17T10:14:26;8.18;;;3.00;;
52104;SDS011;38103;42.776;23.112;2022-07-17T10:16:52;8.63;;;3.15;;
52104;SDS011;38103;42.776;23.112;2022-07-17T10:19:19;8.35;;;3.17;;
52104;SDS011;38103;42.776;23.112;2022-07-17T10:21:58;8.80;;;3.05;;
52104;SDS011;38103;42.776;23.112;2022-07-17T10:24:26;8.57;;;2.95;;
52104;SDS011;38103;42.776;23.112;2022-07-17T10:26:54;9.43;;;3.40;;
52104;SDS011;38103;42.776;23.112;2022-07-17T10:29:37;9.50;;;3.28;;
52104;SDS011;38103;42.776;23.112;2022-07-17T10:32:07;8.70;;;2.92;;
52104;SDS011;38103;42.776;23.112;2022-07-17T10:34:40;9.57;;;3.15;;
52104;SDS011;38103;42.776;23.112;2022-07-17T10:37:15;8.43;;;3.10;;
52104;SDS011;38103;42.776;23.112;2022-07-17T10:45:07;8.13;;;2.70;;
52104;SDS011;38103;42.776;23.112;2022-07-17T10:50:40;8.98;;;3.30;;
52104;SDS011;38103;42.776;23.112;2022-07-17T10:55:43;10.38;;;3.33;;
52104;SDS011;38103;42.776;23.112;2022-07-17T10:58:23;8.85;;;3.03;;
52104;SDS011;38103;42.776;23.112;2022-07-17T11:01:01;10.35;;;3.30;;
52104;SDS011;38103;42.776;23.112;2022-07-17T11:03:27;8.27;;;3.10;;
52104;SDS011;38103;42.776;23.112;2022-07-17T11:05:53;11.32;;;2.90;;
52104;SDS011;38103;42.776;23.112;2022-07-17T11:08:18;8.38;;;3.05;;
52104;SDS011;38103;42.776;23.112;2022-07-17T11:10:45;8.07;;;3.05;;
52104;SDS011;38103;42.776;23.112;2022-07-17T11:13:15;7.90;;;2.97;;
52104;SDS011;38103;42.776;23.112;2022-07-17T11:15:45;11.60;;;3.42;;
52104;SDS011;38103;42.776;23.112;2022-07-17T11:18:13;10.02;;;3.42;;
52104;SDS011;38103;42.776;23.112;2022-07-17T11:20:52;9.20;;;3.20;;
52104;SDS011;38103;42.776;23.112;2022-07-17T11:23:23;8.50;;;3.15;;
52104;SDS011;38103;42.776;23.112;2022-07-17T11:25:51;11.05;;;3.03;;
52104;SDS011;38103;42.776;23.112;2022-07-17T11:28:33;12.85;;;3.20;;
52104;SDS011;38103;42.776;23.112;2022-07-17T11:30:59;9.27;;;3.00;;
52104;SDS011;38103;42.776;23.112;2022-07-17T11:33:25;11.48;;;3.63;;
52104;SDS011;38103;42.776;23.112;2022-07-17T11:35:51;8.27;;;3.22;;
52104;SDS011;38103;42.776;23.112;2022-07-17T11:38:22;11.52;;;3.40;;
52104;SDS011;38103;42.776;23.112;2022-07-17T11:40:49;9.50;;;3.20;;
52104;SDS011;38103;42.776;23.112;2022-07-17T11:43:15;8.95;;;3.15;;
52104;SDS011;38103;42.776;23.112;2022-07-17T11:45:41;8.32;;;3.17;;
52104;SDS011;38103;42.776;23.112;2022-07-17T11:48:08;9.63;;;3.28;;
52104;SDS011;38103;42.776;23.112;2022-07-17T11:50:34;10.95;;;3.10;;
52104;SDS011;38103;42.776;23.112;2022-07-17T11:53:03;8.23;;;3.20;;
52104;SDS011;38103;42.776;23.112;2022-07-17T11:55:38;9.18;;;3.38;;
52104;SDS011;38103;42.776;23.112;2022-07-17T11:58:05;9.15;;;3.47;;
52104;SDS011;38103;42.776;23.112;2022-07-17T12:00:32;10.38;;;3.15;;
52104;SDS011;38103;42.776;23.112;2022-07-17T12:03:03;10.73;;;3.53;;
52104;SDS011;38103;42.776;23.112;2022-07-17T12:05:31;9.55;;;3.08;;
52104;SDS011;38103;42.776;23.112;2022-07-17T12:07:59;8.95;;;3.50;;
52104;SDS011;38103;42.776;23.112;2022-07-17T12:10:27;8.57;;;3.40;;
52104;SDS011;38103;42.776;23.112;2022-07-17T12:15:41;9.27;;;3.20;;
52104;SDS011;38103;42.776;23.112;2022-07-17T12:18:18;9.30;;;3.50;;
52104;SDS011;38103;42.776;23.112;2022-07-17T12:20:50;9.98;;;3.35;;
52104;SDS011;38103;42.776;23.112;2022-07-17T12:23:30;9.48;;;3.60;;
52104;SDS011;38103;42.776;23.112;2022-07-17T12:26:08;10.38;;;3.40;;
52104;SDS011;38103;42.776;23.112;2022-07-17T12:28:40;10.57;;;3.35;;
52104;SDS011;38103;42.776;23.112;2022-07-17T12:31:10;9.82;;;3.40;;
52104;SDS011;38103;42.776;23.112;2022-07-17T12:33:37;9.35;;;3.28;;
52104;SDS011;38103;42.776;23.112;2022-07-17T12:36:02;9.93;;;3.42;;
52104;SDS011;38103;42.776;23.112;2022-07-17T12:38:28;7.93;;;3.20;;
52104;SDS011;38103;42.776;23.112;2022-07-17T12:40:53;8.98;;;3.40;;
52104;SDS011;38103;42.776;23.112;2022-07-17T12:43:19;9.02;;;3.60;;
52104;SDS011;38103;42.776;23.112;2022-07-17T12:45:44;8.40;;;3.00;;
52104;SDS011;38103;42.776;23.112;2022-07-17T12:48:10;9.48;;;3.20;;
52104;SDS011;38103;42.776;23.112;2022-07-17T12:50:35;8.60;;;3.20;;
52104;SDS011;38103;42.776;23.112;2022-07-17T12:53:01;11.13;;;3.22;;
52104;SDS011;38103;42.776;23.112;2022-07-17T12:55:26;9.48;;;3.60;;
52104;SDS011;38103;42.776;23.112;2022-07-17T12:57:52;8.13;;;3.20;;
52104;SDS011;38103;42.776;23.112;2022-07-17T13:00:17;9.45;;;3.42;;
52104;SDS011;38103;42.776;23.112;2022-07-17T13:02:43;8.73;;;3.35;;
52104;SDS011;38103;42.776;23.112;2022-07-17T13:05:08;8.07;;;3.13;;
52104;SDS011;38103;42.776;23.112;2022-07-17T13:07:34;8.63;;;3.20;;
52104;SDS011;38103;42.776;23.112;2022-07-17T13:09:59;9.32;;;3.60;;
52104;SDS011;38103;42.776;23.112;2022-07-17T13:12:25;12.90;;;3.40;;
52104;SDS011;38103;42.776;23.112;2022-07-17T13:14:50;10.10;;;3.50;;
52104;SDS011;38103;42.776;23.112;2022-07-17T13:17:16;9.93;;;3.22;;
52104;SDS011;38103;42.776;23.112;2022-07-17T13:19:41;10.15;;;3.13;;
52104;SDS011;38103;42.776;23.112;2022-07-17T13:22:07;19.35;;;3.75;;
52104;SDS011;38103;42.776;23.112;2022-07-17T13:24:32;9.77;;;3.50;;
52104;SDS011;38103;42.776;23.112;2022-07-17T13:26:58;9.25;;;3.45;;
52104;SDS011;38103;42.776;23.112;2022-07-17T13:29:24;16.20;;;3.60;;
52104;SDS011;38103;42.776;23.112;2022-07-17T13:31:53;8.27;;;3.20;;
52104;SDS011;38103;42.776;23.112;2022-07-17T13:34:20;8.88;;;3.55;;
52104;SDS011;38103;42.776;23.112;2022-07-17T13:36:45;11.32;;;3.50;;
52104;SDS011;38103;42.776;23.112;2022-07-17T13:39:11;10.43;;;3.50;;
52104;SDS011;38103;42.776;23.112;2022-07-17T13:41:36;9.30;;;3.63;;
52104;SDS011;38103;42.776;23.112;2022-07-17T13:44:02;8.30;;;3.15;;
52104;SDS011;38103;42.776;23.112;2022-07-17T13:46:28;11.50;;;3.65;;
52104;SDS011;38103;42.776;23.112;2022-07-17T13:48:53;16.33;;;4.15;;
52104;SDS011;38103;42.776;23.112;2022-07-17T13:51:19;9.52;;;3.53;;
52104;SDS011;38103;42.776;23.112;2022-07-17T13:53:44;9.63;;;3.80;;
52104;SDS011;38103;42.776;23.112;2022-07-17T13:56:09;11.68;;;4.05;;
52104;SDS011;38103;42.776;23.112;2022-07-17T13:58:35;10.63;;;3.33;;
52104;SDS011;38103;42.776;23.112;2022-07-17T14:01:00;9.07;;;3.70;;
52104;SDS011;38103;42.776;23.112;2022-07-17T14:03:26;9.65;;;3.90;;
52104;SDS011;38103;42.776;23.112;2022-07-17T14:05:52;9.50;;;3.83;;
52104;SDS011;38103;42.776;23.112;2022-07-17T14:08:17;11.50;;;4.15;;
52104;SDS011;38103;42.776;23.112;2022-07-17T14:10:42;10.15;;;3.60;;
52104;SDS011;38103;42.776;23.112;2022-07-17T14:13:08;11.50;;;3.83;;
52104;SDS011;38103;42.776;23.112;2022-07-17T14:15:34;9.35;;;3.60;;
52104;SDS011;38103;42.776;23.112;2022-07-17T14:18:00;9.35;;;4.15;;
52104;SDS011;38103;42.776;23.112;2022-07-17T14:20:26;10.05;;;4.07;;
52104;SDS011;38103;42.776;23.112;2022-07-17T14:22:52;9.25;;;3.95;;
52104;SDS011;38103;42.776;23.112;2022-07-17T14:25:17;11.77;;;4.28;;
52104;SDS011;38103;42.776;23.112;2022-07-17T14:27:43;11.00;;;4.30;;
52104;SDS011;38103;42.776;23.112;2022-07-17T14:30:08;9.40;;;4.00;;
52104;SDS011;38103;42.776;23.112;2022-07-17T14:32:34;10.98;;;4.32;;
52104;SDS011;38103;42.776;23.112;2022-07-17T14:35:00;9.60;;;4.20;;
52104;SDS011;38103;42.776;23.112;2022-07-17T14:37:25;9.20;;;4.07;;
52104;SDS011;38103;42.776;23.112;2022-07-17T14:39:51;10.85;;;4.30;;
52104;SDS011;38103;42.776;23.112;2022-07-17T14:42:16;9.60;;;4.20;;
52104;SDS011;38103;42.776;23.112;2022-07-17T14:44:42;9.90;;;4.25;;
52104;SDS011;38103;42.776;23.112;2022-07-17T14:47:08;9.65;;;4.13;;
52104;SDS011;38103;42.776;23.112;2022-07-17T14:49:34;10.10;;;3.85;;
52104;SDS011;38103;42.776;23.112;2022-07-17T14:51:59;12.48;;;4.45;;
52104;SDS011;38103;42.776;23.112;2022-07-17T14:54:25;9.57;;;4.20;;
52104;SDS011;38103;42.776;23.112;2022-07-17T14:56:52;13.45;;;4.50;;